createdAt,value
2018-10-19T00:00:44.856Z,12.80
2018-10-19T00:03:14.118Z,12.80
2018-10-19T00:05:43.243Z,12.70
2018-10-19T00:08:12.484Z,12.70
2018-10-19T00:10:41.649Z,12.70
2018-10-19T00:13:10.897Z,12.70
2018-10-19T00:15:40.095Z,12.60
2018-10-19T00:18:09.499Z,12.60
2018-10-19T00:20:38.660Z,12.60
2018-10-19T00:23:07.862Z,12.50
2018-10-19T00:25:37.039Z,12.50
2018-10-19T00:28:06.282Z,12.50
2018-10-19T00:30:35.433Z,12.50
2018-10-19T00:33:04.708Z,12.50
2018-10-19T00:35:33.931Z,12.40
2018-10-19T00:38:03.138Z,12.40
2018-10-19T00:40:32.337Z,12.40
2018-10-19T00:43:01.543Z,12.40
2018-10-19T00:45:36.002Z,12.30
2018-10-19T00:48:12.195Z,12.30
2018-10-19T00:50:42.745Z,12.30
2018-10-19T00:53:12.521Z,12.30
2018-10-19T00:55:41.824Z,12.30
2018-10-19T00:58:11.247Z,12.20
2018-10-19T01:00:41.804Z,12.20
2018-10-19T01:03:11.210Z,12.20
2018-10-19T01:05:41.016Z,12.10
2018-10-19T01:08:11.157Z,12.10
2018-10-19T01:10:40.336Z,12.10
2018-10-19T01:13:09.572Z,12.10
2018-10-19T01:15:38.767Z,12.10
2018-10-19T01:18:08.008Z,12.10
2018-10-19T01:20:37.193Z,12.10
2018-10-19T01:23:06.638Z,12.00
2018-10-19T01:25:40.026Z,12.00
2018-10-19T01:28:09.708Z,12.00
2018-10-19T01:30:39.002Z,12.00
2018-10-19T01:33:08.211Z,12.00
2018-10-19T01:35:37.331Z,12.00
2018-10-19T01:38:06.758Z,11.90
2018-10-19T01:40:36.239Z,11.90
2018-10-19T01:43:05.443Z,11.90
2018-10-19T01:45:34.585Z,11.80
2018-10-19T01:48:03.737Z,11.80
2018-10-19T01:50:32.949Z,11.80
2018-10-19T01:53:02.125Z,11.80
2018-10-19T01:55:31.253Z,11.80
2018-10-19T01:58:00.429Z,11.80
2018-10-19T02:00:29.569Z,11.80
2018-10-19T02:02:58.788Z,11.80
2018-10-19T02:05:27.972Z,11.70
2018-10-19T02:07:57.199Z,11.70
2018-10-19T02:10:26.424Z,11.70
2018-10-19T02:12:55.632Z,11.70
2018-10-19T02:15:24.854Z,11.70
2018-10-19T02:17:54.001Z,11.70
2018-10-19T02:20:23.169Z,11.70
2018-10-19T02:22:52.313Z,11.70
2018-10-19T02:25:21.445Z,11.70
2018-10-19T02:27:50.616Z,11.70
2018-10-19T02:30:19.757Z,11.70
2018-10-19T02:32:49.074Z,11.70
2018-10-19T02:35:18.294Z,11.60
2018-10-19T02:37:47.346Z,11.60
2018-10-19T02:40:16.604Z,11.60
2018-10-19T02:42:45.758Z,11.60
2018-10-19T02:45:14.996Z,11.60
2018-10-19T02:47:44.082Z,11.50
2018-10-19T02:50:13.291Z,11.50
2018-10-19T02:52:42.440Z,11.50
2018-10-19T02:55:11.596Z,11.50
2018-10-19T02:57:40.739Z,11.50
2018-10-19T03:00:11.657Z,11.50
2018-10-19T03:02:41.265Z,11.50
2018-10-19T03:05:10.839Z,11.50
2018-10-19T03:07:40.173Z,11.40
2018-10-19T03:10:09.723Z,11.40
2018-10-19T03:12:38.878Z,11.50
2018-10-19T03:15:08.885Z,11.40
2018-10-19T03:17:38.236Z,11.40
2018-10-19T03:20:08.514Z,11.40
2018-10-19T03:22:38.175Z,11.40
2018-10-19T03:25:07.746Z,11.40
2018-10-19T03:27:36.922Z,11.30
2018-10-19T03:30:06.889Z,11.30
2018-10-19T03:32:36.090Z,11.20
2018-10-19T03:35:06.242Z,11.20
2018-10-19T03:37:35.424Z,11.10
2018-10-19T03:40:04.777Z,11.00
2018-10-19T03:42:34.063Z,10.90
2018-10-19T03:45:03.311Z,10.90
2018-10-19T03:47:32.441Z,10.90
2018-10-19T03:50:01.657Z,10.80
2018-10-19T03:52:30.789Z,10.80
2018-10-19T03:54:59.965Z,10.80
2018-10-19T03:57:29.100Z,10.90
2018-10-19T03:59:58.305Z,10.80
2018-10-19T04:02:27.525Z,10.80
2018-10-19T04:04:56.696Z,10.80
2018-10-19T04:07:25.804Z,10.90
2018-10-19T04:09:54.929Z,10.90
2018-10-19T04:12:24.083Z,10.90
2018-10-19T04:14:53.276Z,10.90
2018-10-19T04:17:22.366Z,10.90
2018-10-19T04:19:52.375Z,10.90
2018-10-19T04:22:21.561Z,10.90
2018-10-19T04:24:50.744Z,10.90
2018-10-19T04:27:20.098Z,10.90
2018-10-19T04:29:49.197Z,10.90
2018-10-19T04:32:18.333Z,10.90
2018-10-19T04:34:47.488Z,10.90
2018-10-19T04:37:16.655Z,10.90
2018-10-19T04:39:45.845Z,10.80
2018-10-19T04:42:15.082Z,10.80
2018-10-19T04:44:44.207Z,10.80
2018-10-19T04:47:13.511Z,10.80
2018-10-19T04:49:42.612Z,10.80
2018-10-19T04:52:11.777Z,10.80
2018-10-19T04:54:41.038Z,10.70
2018-10-19T04:57:10.285Z,10.70
2018-10-19T04:59:39.415Z,10.70
2018-10-19T05:02:08.583Z,10.70
2018-10-19T05:04:37.757Z,10.60
2018-10-19T05:07:06.874Z,10.50
2018-10-19T05:09:36.057Z,10.50
2018-10-19T05:12:05.243Z,10.50
2018-10-19T05:14:34.392Z,10.40
2018-10-19T05:17:03.620Z,10.40
2018-10-19T05:19:32.705Z,10.40
2018-10-19T05:22:01.862Z,10.40
2018-10-19T05:24:31.071Z,10.40
2018-10-19T05:27:00.289Z,10.40
2018-10-19T05:29:29.457Z,10.30
2018-10-19T05:31:58.686Z,10.30
2018-10-19T05:34:27.814Z,10.20
2018-10-19T05:36:57.037Z,10.20
2018-10-19T05:39:26.245Z,10.20
2018-10-19T05:41:55.460Z,10.20
2018-10-19T05:44:24.648Z,10.10
2018-10-19T05:46:53.831Z,10.20
2018-10-19T05:49:22.973Z,10.20
2018-10-19T05:51:52.165Z,10.20
2018-10-19T05:54:21.289Z,10.20
2018-10-19T05:56:50.433Z,10.20
2018-10-19T05:59:19.563Z,10.20
2018-10-19T06:01:48.926Z,10.10
2018-10-19T06:04:18.136Z,10.10
2018-10-19T06:06:47.276Z,10.10
2018-10-19T06:09:16.452Z,10.10
2018-10-19T06:11:45.644Z,10.10
2018-10-19T06:14:15.046Z,10.10
2018-10-19T06:16:44.302Z,10.10
2018-10-19T06:19:13.610Z,10.10
2018-10-19T06:21:42.977Z,10.20
2018-10-19T06:24:12.157Z,10.20
2018-10-19T06:26:41.307Z,10.20
2018-10-19T06:29:10.532Z,10.30
2018-10-19T06:31:39.678Z,10.30
2018-10-19T06:34:09.007Z,10.30
2018-10-19T06:36:38.255Z,10.40
2018-10-19T06:39:10.445Z,10.40
2018-10-19T06:41:39.727Z,10.50
2018-10-19T06:44:09.358Z,10.50
2018-10-19T06:46:38.527Z,10.50
2018-10-19T06:49:07.748Z,10.50
2018-10-19T06:51:36.859Z,10.50
2018-10-19T06:54:06.373Z,10.50
2018-10-19T06:56:35.575Z,10.50
2018-10-19T06:59:04.868Z,10.60
2018-10-19T07:01:33.988Z,10.70
2018-10-19T07:04:03.188Z,10.70
2018-10-19T07:06:32.381Z,10.80
2018-10-19T07:09:01.801Z,10.80
2018-10-19T07:11:31.053Z,10.90
2018-10-19T07:14:00.210Z,11.00
2018-10-19T07:16:29.384Z,11.10
2018-10-19T07:18:58.551Z,11.20
2018-10-19T07:21:27.659Z,11.10
2018-10-19T07:23:56.789Z,11.10
2018-10-19T07:26:25.921Z,11.00
2018-10-19T07:28:55.347Z,11.00
2018-10-19T07:31:24.481Z,10.90
2018-10-19T07:33:54.334Z,10.90
2018-10-19T07:36:23.846Z,11.00
2018-10-19T07:38:53.040Z,11.00
2018-10-19T07:41:22.237Z,11.00
2018-10-19T07:43:51.363Z,11.10
2018-10-19T07:46:20.520Z,11.10
2018-10-19T07:48:49.660Z,11.20
2018-10-19T07:51:18.784Z,11.20
2018-10-19T07:53:47.909Z,11.30
2018-10-19T07:56:23.412Z,11.30
2018-10-19T07:58:52.539Z,11.30
2018-10-19T08:01:21.671Z,11.40
2018-10-19T08:03:50.860Z,11.40
2018-10-19T08:06:20.001Z,11.50
2018-10-19T08:08:49.199Z,11.50
2018-10-19T08:11:18.409Z,11.50
2018-10-19T08:13:47.488Z,11.50
2018-10-19T08:16:16.656Z,11.50
2018-10-19T08:18:45.818Z,11.50
2018-10-19T08:21:14.996Z,11.50
2018-10-19T08:23:44.337Z,11.60
2018-10-19T08:26:13.577Z,11.60
2018-10-19T08:28:42.681Z,11.60
2018-10-19T08:31:11.978Z,11.60
2018-10-19T08:33:41.228Z,11.60
2018-10-19T08:36:10.412Z,11.70
2018-10-19T08:38:39.611Z,11.70
2018-10-19T08:41:08.848Z,11.80
2018-10-19T08:43:37.991Z,11.90
2018-10-19T08:46:12.346Z,11.90
2018-10-19T08:48:41.577Z,11.90
2018-10-19T08:51:10.831Z,12.00
2018-10-19T08:53:39.973Z,12.00
2018-10-19T08:56:09.049Z,12.10
2018-10-19T08:58:38.257Z,12.10
2018-10-19T09:01:07.539Z,12.10
2018-10-19T09:03:36.853Z,12.10
2018-10-19T09:06:06.395Z,12.10
2018-10-19T09:08:35.522Z,12.10
2018-10-19T09:11:04.740Z,12.10
2018-10-19T09:13:33.888Z,12.10
2018-10-19T09:16:03.100Z,12.10
2018-10-19T09:18:32.372Z,12.10
2018-10-19T09:21:01.643Z,12.00
2018-10-19T09:23:30.725Z,12.10
2018-10-19T09:25:59.893Z,12.10
2018-10-19T09:28:29.055Z,12.00
2018-10-19T09:30:58.295Z,12.10
2018-10-19T09:33:27.468Z,12.10
2018-10-19T09:35:56.692Z,12.20
2018-10-19T09:38:25.765Z,12.20
2018-10-19T09:40:55.022Z,12.20
2018-10-19T09:43:24.098Z,12.20
2018-10-19T09:45:53.286Z,12.30
2018-10-19T09:48:22.492Z,12.30
2018-10-19T09:50:51.718Z,12.30
2018-10-19T09:53:20.841Z,12.40
2018-10-19T09:55:50.000Z,12.40
2018-10-19T09:58:19.141Z,12.50
2018-10-19T10:00:53.619Z,12.50
2018-10-19T10:03:22.714Z,12.50
2018-10-19T10:05:51.892Z,12.60
2018-10-19T10:08:21.547Z,12.60
2018-10-19T10:10:50.720Z,12.70
2018-10-19T10:13:19.984Z,12.70
2018-10-19T10:15:49.199Z,12.80
2018-10-19T10:18:18.416Z,12.90
2018-10-19T10:20:47.569Z,13.00
2018-10-19T10:23:16.801Z,13.10
2018-10-19T10:25:46.017Z,13.30
2018-10-19T10:28:15.274Z,13.50
2018-10-19T10:30:44.344Z,13.90
2018-10-19T10:33:13.522Z,14.30
2018-10-19T10:35:42.721Z,14.80
2018-10-19T10:38:11.924Z,15.30
2018-10-19T10:40:41.064Z,15.80
2018-10-19T10:43:10.345Z,16.20
2018-10-19T10:45:39.463Z,16.50
2018-10-19T10:48:08.607Z,16.70
2018-10-19T10:50:37.729Z,16.90
2018-10-19T10:53:06.994Z,17.00
2018-10-19T10:55:36.389Z,17.20
2018-10-19T10:58:05.961Z,17.30
2018-10-19T11:00:34.441Z,17.40
2018-10-19T11:03:03.007Z,17.70
2018-10-19T11:05:31.527Z,17.80
2018-10-19T11:08:00.717Z,17.80
2018-10-19T11:10:29.929Z,17.90
2018-10-19T11:12:59.172Z,18.00
2018-10-19T11:15:28.329Z,18.20
2018-10-19T11:17:57.557Z,18.40
2018-10-19T11:20:26.786Z,18.60
2018-10-19T11:22:56.139Z,18.80
2018-10-19T11:25:25.408Z,19.10
2018-10-19T11:27:54.602Z,19.20
2018-10-19T11:30:23.810Z,19.30
2018-10-19T11:32:53.009Z,19.30
2018-10-19T11:35:22.202Z,19.30
2018-10-19T11:37:51.385Z,19.40
2018-10-19T11:40:29.280Z,19.50
2018-10-19T11:42:58.627Z,19.40
2018-10-19T11:45:30.286Z,19.30
2018-10-19T11:47:59.460Z,19.20
2018-10-19T11:50:28.843Z,19.00
2018-10-19T11:52:58.029Z,18.90
2018-10-19T11:55:27.178Z,18.90
2018-10-19T11:57:56.377Z,19.00
2018-10-19T12:00:25.580Z,19.10
2018-10-19T12:02:54.712Z,19.20
2018-10-19T12:05:23.863Z,19.30
2018-10-19T12:07:53.077Z,19.40
2018-10-19T12:10:22.221Z,19.50
2018-10-19T12:12:51.537Z,19.60
2018-10-19T12:15:21.905Z,19.60
2018-10-19T12:17:51.100Z,19.70
2018-10-19T12:20:20.265Z,19.70
2018-10-19T12:22:49.418Z,19.70
2018-10-19T12:25:19.061Z,19.60
2018-10-19T12:27:48.213Z,19.70
2018-10-19T12:30:17.414Z,19.70
2018-10-19T12:32:46.545Z,19.60
2018-10-19T12:35:15.923Z,19.50
2018-10-19T12:37:45.173Z,19.60
2018-10-19T12:40:14.321Z,19.70
2018-10-19T12:42:43.498Z,19.80
2018-10-19T12:46:32.933Z,19.90
2018-10-19T12:49:02.145Z,20.10
2018-10-19T12:51:31.269Z,20.10
2018-10-19T12:54:00.557Z,20.00
2018-10-19T12:56:29.688Z,20.00
2018-10-19T12:58:58.922Z,20.00
2018-10-19T13:01:28.993Z,20.00
2018-10-19T13:03:58.805Z,19.90
2018-10-19T13:06:27.956Z,19.90
2018-10-19T13:08:57.202Z,19.90
2018-10-19T13:11:26.719Z,19.90
2018-10-19T13:13:56.044Z,19.80
2018-10-19T13:16:25.317Z,19.80
2018-10-19T13:18:54.624Z,19.90
2018-10-19T13:21:23.785Z,20.00
2018-10-19T13:23:53.044Z,20.00
2018-10-19T13:26:22.206Z,20.00
2018-10-19T13:28:51.392Z,20.10
2018-10-19T13:31:20.531Z,20.10
2018-10-19T13:33:49.743Z,20.10
2018-10-19T13:36:18.921Z,20.00
2018-10-19T13:38:48.189Z,20.10
2018-10-19T13:41:17.345Z,20.10
2018-10-19T13:43:46.627Z,20.10
2018-10-19T13:46:15.807Z,20.10
2018-10-19T13:48:45.024Z,20.10
2018-10-19T13:51:14.399Z,20.20
2018-10-19T13:53:43.711Z,20.20
2018-10-19T13:56:12.888Z,20.10
2018-10-19T13:58:42.083Z,20.10
2018-10-19T14:01:11.315Z,20.00
2018-10-19T14:03:40.544Z,19.90
2018-10-19T14:06:09.759Z,20.00
2018-10-19T14:08:39.170Z,20.00
2018-10-19T14:11:08.393Z,20.10
2018-10-19T14:13:37.597Z,20.20
2018-10-19T14:16:06.793Z,20.20
2018-10-19T14:18:35.970Z,20.30
2018-10-19T14:21:05.624Z,20.40
2018-10-19T14:23:34.853Z,20.40
2018-10-19T14:26:04.021Z,20.40
2018-10-19T14:28:33.161Z,20.30
2018-10-19T14:31:02.357Z,20.30
2018-10-19T14:33:31.662Z,20.30
2018-10-19T14:36:00.674Z,20.20
2018-10-19T14:38:29.811Z,20.10
2018-10-19T14:40:59.032Z,20.00
2018-10-19T14:43:28.202Z,19.90
2018-10-19T14:45:57.350Z,19.70
2018-10-19T14:48:26.533Z,19.60
2018-10-19T14:50:55.789Z,19.40
2018-10-19T14:53:24.965Z,19.30
2018-10-19T14:55:54.152Z,19.20
2018-10-19T14:58:23.355Z,19.10
2018-10-19T15:00:52.527Z,18.90
2018-10-19T15:03:21.854Z,18.80
2018-10-19T15:05:51.033Z,18.60
2018-10-19T15:08:20.228Z,18.50
2018-10-19T15:10:49.570Z,18.30
2018-10-19T15:13:18.603Z,18.20
2018-10-19T15:15:47.800Z,18.00
2018-10-19T15:18:17.072Z,17.90
2018-10-19T15:20:46.166Z,17.80
2018-10-19T15:23:15.347Z,17.70
2018-10-19T15:25:44.540Z,17.70
2018-10-19T15:28:13.751Z,17.60
2018-10-19T15:30:43.073Z,17.50
2018-10-19T15:33:12.353Z,17.50
2018-10-19T15:35:41.469Z,17.40
2018-10-19T15:38:10.688Z,17.40
2018-10-19T15:40:39.895Z,17.30
2018-10-19T15:43:09.133Z,17.20
2018-10-19T15:45:38.372Z,17.20
2018-10-19T15:48:07.647Z,17.10
2018-10-19T15:50:36.896Z,17.10
2018-10-19T15:53:06.240Z,17.00
2018-10-19T15:55:35.391Z,16.90
2018-10-19T15:58:04.597Z,16.90
2018-10-19T16:00:33.779Z,16.80
2018-10-19T16:03:02.929Z,16.80
2018-10-19T16:05:32.073Z,16.70
2018-10-19T16:08:01.197Z,16.70
2018-10-19T16:10:30.436Z,16.60
2018-10-19T16:12:59.625Z,16.50
2018-10-19T16:15:28.815Z,16.50
2018-10-19T16:17:57.972Z,16.40
2018-10-19T16:20:27.382Z,16.40
2018-10-19T16:22:56.538Z,16.30
2018-10-19T16:25:25.741Z,16.20
2018-10-19T16:27:55.099Z,16.20
2018-10-19T16:30:24.237Z,16.10
2018-10-19T16:32:53.426Z,16.00
2018-10-19T16:35:22.593Z,15.90
2018-10-19T16:37:51.745Z,15.90
2018-10-19T16:40:20.889Z,15.80
2018-10-19T16:42:50.072Z,15.80
2018-10-19T16:45:19.210Z,15.70
2018-10-19T16:47:48.457Z,15.70
2018-10-19T16:50:17.692Z,15.60
2018-10-19T16:52:46.861Z,15.50
2018-10-19T16:55:16.016Z,15.50
2018-10-19T16:57:45.191Z,15.40
2018-10-19T17:00:14.486Z,15.40
2018-10-19T17:02:43.642Z,15.30
2018-10-19T17:05:12.812Z,15.30
2018-10-19T17:07:41.980Z,15.20
2018-10-19T17:10:11.145Z,15.20
2018-10-19T17:12:40.364Z,15.10
2018-10-19T17:15:09.559Z,15.10
2018-10-19T17:17:38.709Z,15.00
2018-10-19T17:20:08.249Z,15.00
2018-10-19T17:22:37.964Z,15.00
2018-10-19T17:25:10.530Z,14.90
2018-10-19T17:27:40.049Z,14.90
2018-10-19T17:30:12.887Z,14.90
2018-10-19T17:32:42.138Z,14.80
2018-10-19T17:35:11.361Z,14.80
2018-10-19T17:37:40.575Z,14.80
2018-10-19T17:40:10.404Z,14.80
2018-10-19T17:42:39.557Z,14.70
2018-10-19T17:45:10.340Z,14.80
2018-10-19T17:47:39.665Z,14.70
2018-10-19T17:50:08.854Z,14.70
2018-10-19T17:52:38.153Z,14.70
2018-10-19T17:55:09.469Z,14.70
2018-10-19T17:57:39.164Z,14.60
2018-10-19T18:00:10.291Z,14.60
2018-10-19T18:02:39.461Z,14.60
2018-10-19T18:05:14.319Z,14.60
2018-10-19T18:07:43.425Z,14.60
2018-10-19T18:10:12.592Z,14.50
2018-10-19T18:12:41.775Z,14.60
2018-10-19T18:15:11.014Z,14.50
2018-10-19T18:17:40.073Z,14.50
2018-10-19T18:20:09.330Z,14.40
2018-10-19T18:22:38.641Z,14.50
2018-10-19T18:25:08.041Z,14.40
2018-10-19T18:27:37.253Z,14.40
2018-10-19T18:30:07.294Z,14.30
2018-10-19T18:32:37.089Z,14.30
2018-10-19T18:35:07.943Z,14.30
2018-10-19T18:37:37.101Z,14.20
2018-10-19T18:40:08.713Z,14.20
2018-10-19T18:42:37.934Z,14.20
2018-10-19T18:45:07.982Z,14.10
2018-10-19T18:47:37.490Z,14.10
2018-10-19T18:50:07.282Z,14.10
2018-10-19T18:52:36.520Z,14.10
2018-10-19T18:55:05.913Z,14.10
2018-10-19T18:57:35.121Z,14.00
2018-10-19T19:00:04.401Z,14.00
2018-10-19T19:02:33.582Z,14.00
2018-10-19T19:05:02.852Z,13.90
2018-10-19T19:07:32.168Z,13.90
2018-10-19T19:10:12.765Z,13.90
2018-10-19T19:12:42.031Z,13.80
2018-10-19T19:15:11.936Z,13.80
2018-10-19T19:17:41.312Z,13.70
2018-10-19T19:20:15.784Z,13.70
2018-10-19T19:22:44.918Z,13.70
2018-10-19T19:25:19.407Z,13.60
2018-10-19T19:27:48.616Z,13.60
2018-10-19T19:30:17.948Z,13.60
2018-10-19T19:32:52.531Z,13.60
2018-10-19T19:35:21.876Z,13.50
2018-10-19T19:37:51.216Z,13.60
2018-10-19T19:40:20.574Z,13.50
2018-10-19T19:42:53.494Z,13.50
2018-10-19T19:45:23.166Z,13.50
2018-10-19T19:47:58.285Z,13.50
2018-10-19T19:50:27.718Z,13.50
2018-10-19T19:52:57.998Z,13.40
2018-10-19T19:55:27.486Z,13.40
2018-10-19T19:57:57.653Z,13.40
2018-10-19T20:00:28.057Z,13.30
2018-10-19T20:02:57.685Z,13.40
2018-10-19T20:05:27.222Z,13.40
2018-10-19T20:07:57.322Z,13.30
2018-10-19T20:10:26.960Z,13.30
2018-10-19T20:12:57.894Z,13.20
2018-10-19T20:15:27.482Z,13.20
2018-10-19T20:17:58.587Z,13.20
2018-10-19T20:20:28.305Z,13.20
2018-10-19T20:22:58.001Z,13.20
2018-10-19T20:25:27.649Z,13.10
2018-10-19T20:27:57.129Z,13.10
2018-10-19T20:30:26.870Z,13.10
2018-10-19T20:32:56.356Z,13.10
2018-10-19T20:35:25.812Z,13.00
2018-10-19T20:37:55.371Z,13.00
2018-10-19T20:40:25.169Z,13.00
2018-10-19T20:42:54.593Z,13.00
2018-10-19T20:45:24.090Z,13.00
2018-10-19T20:47:53.425Z,13.00
2018-10-19T20:50:22.877Z,12.90
2018-10-19T20:52:52.396Z,12.90
2018-10-19T20:55:21.673Z,12.90
2018-10-19T20:57:51.093Z,12.90
2018-10-19T21:00:20.569Z,12.90
2018-10-19T21:02:49.955Z,12.80
2018-10-19T21:05:19.336Z,12.80
2018-10-19T21:07:49.136Z,12.80
2018-10-19T21:10:18.609Z,12.80
2018-10-19T21:12:47.974Z,12.80
2018-10-19T21:15:17.378Z,12.70
2018-10-19T21:17:46.863Z,12.70
2018-10-19T21:21:19.196Z,12.70
2018-10-19T21:23:48.576Z,12.70
2018-10-19T21:26:17.981Z,12.60
2018-10-19T21:28:47.636Z,12.60
2018-10-19T21:31:17.015Z,12.60
2018-10-19T21:33:46.398Z,12.60
2018-10-19T21:36:15.903Z,12.60
2018-10-19T21:38:45.393Z,12.50
2018-10-19T21:41:14.842Z,12.50
2018-10-19T21:43:44.073Z,12.50
2018-10-19T21:46:13.423Z,12.50
2018-10-19T21:48:42.785Z,12.50
2018-10-19T21:51:12.135Z,12.40
2018-10-19T21:53:41.505Z,12.40
2018-10-19T21:56:10.907Z,12.40
2018-10-19T21:58:40.265Z,12.30
2018-10-19T22:01:09.578Z,12.30
2018-10-19T22:03:38.916Z,12.30
2018-10-19T22:06:08.291Z,12.30
2018-10-19T22:08:37.730Z,12.30
2018-10-19T22:11:07.089Z,12.30
2018-10-19T22:13:36.444Z,12.30
2018-10-19T22:16:06.592Z,12.20
2018-10-19T22:21:32.971Z,12.20
2018-10-19T22:24:02.160Z,12.20
2018-10-19T22:26:31.466Z,12.20
2018-10-19T22:29:00.645Z,12.20
2018-10-19T22:31:29.835Z,12.10
2018-10-19T22:33:59.049Z,12.10
2018-10-19T22:36:28.241Z,12.10
2018-10-19T22:38:57.465Z,12.10
2018-10-19T22:41:27.026Z,12.10
2018-10-19T22:43:56.200Z,12.10
2018-10-19T22:46:25.415Z,12.00
2018-10-19T22:48:54.740Z,12.00
2018-10-19T22:51:23.891Z,12.00
2018-10-19T22:53:53.073Z,12.00
2018-10-19T22:56:22.311Z,12.00
2018-10-19T22:58:51.483Z,12.00
2018-10-19T23:01:20.741Z,12.00
2018-10-19T23:03:50.537Z,11.90
2018-10-19T23:06:19.713Z,11.90
2018-10-19T23:08:48.944Z,11.90
2018-10-19T23:11:18.235Z,11.90
2018-10-19T23:13:47.393Z,11.90
2018-10-19T23:16:16.605Z,11.90
2018-10-19T23:18:45.858Z,11.90
2018-10-19T23:21:15.033Z,11.90
2018-10-19T23:23:44.241Z,11.90
2018-10-19T23:26:13.403Z,11.80
2018-10-19T23:28:42.565Z,11.90
2018-10-19T23:31:11.787Z,11.90
2018-10-19T23:33:40.929Z,11.90
2018-10-19T23:36:10.119Z,11.90
2018-10-19T23:38:39.265Z,11.90
2018-10-19T23:41:08.434Z,11.90
2018-10-19T23:43:37.629Z,11.90
2018-10-19T23:46:07.053Z,11.90
2018-10-19T23:48:36.210Z,11.90
2018-10-19T23:51:05.662Z,11.90
2018-10-19T23:53:34.868Z,11.90
2018-10-19T23:56:04.001Z,11.90
2018-10-19T23:58:33.189Z,11.90
